Hundvaag 1 weather for Dec 2006
Month no. 234
Obs.
Da.
Temp. Dew Point Precip. Wind
Speed
Wind gusts Cloud cover Press. Humidity Wind dir. Sunny OPT
01.12.2006 8,8   0,0 38,6   0 1009,7 82,0 112,5 1 37,5 %
02.12.2006 9,6   14,5 32,2   1 1002,9 89,0 135,0   35,0 %
03.12.2006 8,9   0,6 24,1   0 996,8 81,0 0,0   47,5 %
04.12.2006 8,4   18,5 33,8   1 977,9 80,0 112,5   27,5 %
05.12.2006 7,8   11,5 17,7   0 978,9 85,0 180,0   45,0 %
06.12.2006 5,4   17,5 9,7   2 978,9 87,0 135,0   47,5 %
07.12.2006 5,2   5,9 17,7   0 988,0 85,0 180,0   47,5 %
08.12.2006 7,1   28,7 38,6   2 973,1 87,0 315,0   17,5 %
09.12.2006 5,9   4,0 1,6   6 991,4 86,0 247,5 1 72,5 %
10.12.2006 4,5   1,2 8,0   0 1012,8 85,0 0,0   52,5 %
11.12.2006 9,8   33,5 38,6   0 991,8 92,0 202,5 1 12,5 %
12.12.2006 7,1   1,7 30,6   2 1000,2 75,0 247,5   45,0 %
13.12.2006 5,9   8,0 37,0   3 1000,2 86,0 225,0 1 37,5 %
14.12.2006 10,5   12,0 32,2   0 998,5 88,0 225,0   35,0 %
15.12.2006 7,8   3,5 33,8   2 1005,0 71,0 157,5 1 42,5 %
16.12.2006 5,0   1,0 4,8   2 1007,7 77,0 292,5 1 62,5 %
17.12.2006 3,3   5,2 9,7   9 1010,7 85,0 225,0 1 72,5 %
18.12.2006 2,8   0,5 4,8   2 1024,9 84,0 337,5   60,0 %
19.12.2006 4,5   8,5 3,2   1 1029,3 87,0 157,5   55,0 %
20.12.2006 7,3   3,5 12,9   1 1031,0 90,0 90,0   52,5 %
21.12.2006 5,6   0,0 3,2   1 1036,1 88,0 45,0   62,5 %
22.12.2006 6,4   0,0 4,8   3 1036,1 88,0 247,5 1 65,0 %
23.12.2006 8,3   2,0 3,2   0 1038,5 91,0 315,0   62,5 %
24.12.2006 7,4   0,3 12,9   0 1037,1 91,0 247,5   52,5 %
25.12.2006 4,9   0,0 8,0   10 1037,1 90,0 0,0 1 77,5 %
26.12.2006 6,4   0,0 3,2   0 1032,7 86,0 202,5   60,0 %
27.12.2006 6,6   0,0 1,6   3 1027,0 87,0 225,0   67,5 %
28.12.2006 5,2   0,7 3,2   3 1017,8 85,0 247,5 1 67,5 %
29.12.2006 1,6   0,3 14,5   3 1019,5 86,0 225,0 1 55,0 %
30.12.2006 8,3   14,3 33,8   0 994,8 89,0 157,5   30,0 %
31.12.2006 6,5   10,5 14,5   5 1001,2 82,0 270,0 1 57,5 %
Avrg/Sum 6,5   207,9 17,2   2,0 1009,3 85,3 185,8 12 50,4 %